SLCB/CBB METAR and TAF weather

Enter ICAO airport designator
Station Type Date Time Source
SLCB METAR 2019/05/27 09:00 UTC NOAA

SLCB 270900Z 26003KT 9999 NSC 08/05 Q1021


Station Type Date Time Source
SLCB Decoded METAR 2019/05/27 09:00 UTC NOAA

Cochabamba, Bolivia (SLCB) 17-25S 066-11W 2570M
May 27, 2019 - 05:00 AM EDT / 2019.05.27 0900 UTC
Wind: from the W (260 degrees) at 3 MPH (3 KT):0
Visibility: greater than 7 mile(s):0
Temperature: 46 F (8 C)
Dew Point: 41 F (5 C)
Relative Humidity: 81%
Pressure (altimeter): 30.15 in. Hg (1021 hPa)
ob: SLCB 270900Z 26003KT 9999 NSC 08/05 Q1021
cycle: 9

Station Type Date Time Source
SLCB TAF 2019/05/27 06:55 UTC NOAA

TAF SLCB 270400Z 2706/2806 00000KT 9999 NSC TX28/2719Z TN05/2711Z
TEMPO 2710/2712 5000 FU
BECMG 2716/2718 24010KT
BECMG 2723/2801 15010KT

Example: see airport list